Time;durP1;ratioP1;P1;durP2;ratioP2;P2;SDS_P1;SDS_P2;PMS_P1;PMS_P2;Temp;Humidity;BMP_temperature;BMP_pressure;BME280_temperature;BME280_humidity;BME280_pressure;Samples;Min_cycle;Max_cycle;Signal;HPM_P1;HPM_P2
2023/07/13 00:01:28;;;;;;;9.88;2.80;;;16.30;99.90;;;;;;5032238;28;20106;-48
2023/07/13 00:03:54;;;;;;;7.85;3.15;;;16.20;99.90;;;;;;5020596;28;20091;-48
2023/07/13 00:06:21;;;;;;;6.88;2.55;;;16.20;99.90;;;;;;5018898;28;20060;-48
2023/07/13 00:08:48;;;;;;;6.95;3.08;;;16.10;99.90;;;;;;5020334;28;20041;-47
2023/07/13 00:11:15;;;;;;;9.18;2.83;;;16.10;99.90;;;;;;5020245;28;20072;-48
2023/07/13 00:13:42;;;;;;;8.18;2.92;;;16.20;99.90;;;;;;5020057;28;20030;-48
2023/07/13 00:16:09;;;;;;;10.63;3.08;;;16.10;99.90;;;;;;5020091;28;20049;-47
2023/07/13 00:18:35;;;;;;;5.07;2.40;;;16.10;99.90;;;;;;5020626;28;20037;-51
2023/07/13 00:21:04;;;;;;;6.93;3.10;;;16.20;99.90;;;;;;5018967;28;20431;-50
2023/07/13 00:23:35;;;;;;;8.25;3.20;;;16.00;99.90;;;;;;5019636;28;20134;-49
2023/07/13 00:26:03;;;;;;;10.32;3.45;;;15.90;99.90;;;;;;5020096;28;20041;-48
2023/07/13 00:28:29;;;;;;;8.40;2.95;;;15.90;99.90;;;;;;5020159;28;20080;-47
2023/07/13 00:30:55;;;;;;;9.10;2.85;;;15.90;99.90;;;;;;5019776;28;20049;-50
2023/07/13 00:33:21;;;;;;;7.72;3.25;;;15.90;99.90;;;;;;5020209;28;20099;-48
2023/07/13 00:35:47;;;;;;;9.63;3.38;;;15.80;99.90;;;;;;5018653;28;20397;-49
2023/07/13 00:38:13;;;;;;;6.82;2.97;;;15.80;99.90;;;;;;5020183;28;20042;-47
2023/07/13 00:40:39;;;;;;;7.13;3.03;;;15.80;99.90;;;;;;5023505;28;20051;-50
2023/07/13 00:43:13;;;;;;;8.10;3.05;;;15.80;99.90;;;;;;5023654;28;20079;-48
2023/07/13 00:45:45;;;;;;;6.43;2.90;;;15.80;99.90;;;;;;5023097;28;20409;-51
2023/07/13 00:48:13;;;;;;;8.88;3.05;;;15.80;99.90;;;;;;5023644;28;20096;-48
2023/07/13 00:50:40;;;;;;;11.75;3.22;;;15.70;99.90;;;;;;5022863;28;20045;-48
2023/07/13 00:53:06;;;;;;;8.50;3.40;;;15.70;99.90;;;;;;5023134;28;20096;-49
2023/07/13 00:55:32;;;;;;;12.45;3.92;;;15.60;99.90;;;;;;5023109;28;20041;-51
2023/07/13 00:57:58;;;;;;;12.32;3.05;;;15.70;99.90;;;;;;5023787;28;20427;-49
2023/07/13 01:00:26;;;;;;;8.68;3.00;;;15.60;99.90;;;;;;5005677;28;20049;-48
2023/07/13 01:02:52;;;;;;;9.20;3.50;;;15.60;99.90;;;;;;5022508;28;20577;-49
2023/07/13 01:05:22;;;;;;;11.95;3.22;;;15.70;99.90;;;;;;5021778;28;20183;-48
2023/07/13 01:07:50;;;;;;;13.40;4.00;;;15.70;99.90;;;;;;5023125;28;20073;-49
2023/07/13 01:10:16;;;;;;;9.32;3.70;;;15.70;99.90;;;;;;5037465;28;20116;-47
2023/07/13 01:12:42;;;;;;;12.68;3.25;;;15.70;99.90;;;;;;5042449;28;20191;-48
2023/07/13 01:15:39;;;;;;;14.68;4.05;;;15.80;99.90;;;;;;5042444;28;20047;-48
2023/07/13 01:18:11;;;;;;;10.73;3.03;;;15.80;99.90;;;;;;5042743;28;20442;-49
2023/07/13 01:20:37;;;;;;;11.23;3.22;;;15.80;99.90;;;;;;5042278;28;20568;-47
2023/07/13 01:23:06;;;;;;;11.57;3.35;;;15.70;99.90;;;;;;5041876;28;20056;-48
2023/07/13 01:25:32;;;;;;;12.63;3.25;;;15.70;99.90;;;;;;5042877;28;20076;-49
2023/07/13 01:27:57;;;;;;;10.88;3.05;;;15.80;99.90;;;;;;5042833;28;20045;-48
2023/07/13 01:30:23;;;;;;;16.27;3.85;;;15.80;99.90;;;;;;5042246;28;20045;-48
2023/07/13 01:32:49;;;;;;;13.95;2.90;;;15.90;99.90;;;;;;5042243;28;20041;-48
2023/07/13 01:35:16;;;;;;;11.90;3.33;;;15.90;99.90;;;;;;5041384;28;20041;-48
2023/07/13 01:37:42;;;;;;;13.10;3.70;;;15.90;99.90;;;;;;5042133;28;20064;-49
2023/07/13 01:40:08;;;;;;;10.18;3.00;;;15.90;99.90;;;;;;5023711;28;20503;-49
2023/07/13 01:42:34;;;;;;;11.10;3.30;;;15.90;99.90;;;;;;5042131;28;20546;-50
2023/07/13 01:45:00;;;;;;;16.23;3.38;;;15.90;99.90;;;;;;5042433;28;20040;-49
2023/07/13 01:47:26;;;;;;;11.13;3.13;;;15.90;99.90;;;;;;5042019;28;20041;-49
2023/07/13 01:49:51;;;;;;;9.70;3.15;;;15.80;99.90;;;;;;5040520;28;20055;-48
2023/07/13 01:52:17;;;;;;;12.65;3.20;;;15.80;99.90;;;;;;5042401;28;20388;-49
2023/07/13 01:54:43;;;;;;;15.18;3.38;;;15.80;99.90;;;;;;5041962;28;20181;-47
2023/07/13 01:57:08;;;;;;;15.48;3.70;;;15.90;99.90;;;;;;5041202;28;20080;-51
2023/07/13 01:59:34;;;;;;;10.35;3.55;;;15.90;99.90;;;;;;5041964;28;20041;-48
2023/07/13 02:02:00;;;;;;;12.18;3.20;;;15.90;99.90;;;;;;5042423;28;20121;-48
2023/07/13 02:04:26;;;;;;;14.50;3.85;;;15.90;99.90;;;;;;5039819;28;20060;-47
2023/07/13 02:06:51;;;;;;;14.85;3.70;;;15.90;99.90;;;;;;5032432;28;20037;-49
2023/07/13 02:09:17;;;;;;;11.88;3.30;;;15.90;99.90;;;;;;5021706;28;20044;-49
2023/07/13 02:11:43;;;;;;;14.50;3.20;;;15.90;99.90;;;;;;5021984;28;20037;-47
2023/07/13 02:14:08;;;;;;;16.70;4.07;;;15.90;99.90;;;;;;5021190;28;20384;-49
2023/07/13 02:16:34;;;;;;;13.38;4.00;;;15.80;99.90;;;;;;5022039;28;20126;-49
2023/07/13 02:19:00;;;;;;;13.35;3.30;;;15.90;99.90;;;;;;5004129;28;20046;-48
2023/07/13 02:21:26;;;;;;;9.68;3.22;;;16.00;99.90;;;;;;5020799;28;20037;-49
2023/07/13 02:23:52;;;;;;;13.68;3.35;;;15.90;99.90;;;;;;5020615;28;20048;-48
2023/07/13 02:26:18;;;;;;;8.98;2.60;;;15.90;99.90;;;;;;5021846;28;20212;-49
2023/07/13 02:28:44;;;;;;;9.95;3.00;;;15.80;99.90;;;;;;5021838;28;20041;-48
2023/07/13 02:31:14;;;;;;;10.48;3.08;;;15.80;99.90;;;;;;5020628;28;20102;-49
2023/07/13 02:33:39;;;;;;;14.00;3.60;;;15.90;99.90;;;;;;5021336;28;20038;-48
2023/07/13 02:36:06;;;;;;;13.60;4.10;;;15.80;99.90;;;;;;5020504;28;20501;-51
2023/07/13 02:38:33;;;;;;;10.88;3.58;;;15.80;99.90;;;;;;5021577;28;20053;-47
2023/07/13 02:40:59;;;;;;;10.80;3.53;;;15.90;99.90;;;;;;5020665;28;20045;-46
2023/07/13 02:43:25;;;;;;;14.25;3.35;;;15.80;99.90;;;;;;5021589;28;20053;-49
2023/07/13 02:45:51;;;;;;;13.20;3.63;;;15.80;99.90;;;;;;5021203;28;20393;-47
2023/07/13 02:48:17;;;;;;;10.48;2.70;;;15.70;99.90;;;;;;5020885;28;20533;-48
2023/07/13 02:50:44;;;;;;;11.48;3.10;;;15.70;99.90;;;;;;5020071;28;20088;-47
2023/07/13 02:53:10;;;;;;;13.00;3.72;;;15.70;99.90;;;;;;5003106;28;20243;-48
2023/07/13 02:55:36;;;;;;;9.95;3.20;;;15.70;99.90;;;;;;5020944;28;20045;-48
2023/07/13 02:58:02;;;;;;;11.65;3.40;;;15.80;99.90;;;;;;5003304;28;20570;-48
2023/07/13 03:00:28;;;;;;;10.38;3.00;;;15.80;99.90;;;;;;5021003;28;20099;-48
2023/07/13 03:02:57;;;;;;;13.85;3.30;;;15.70;99.90;;;;;;5003073;28;20053;-48
2023/07/13 03:05:23;;;;;;;11.20;3.65;;;15.60;99.90;;;;;;5019282;28;20132;-48
2023/07/13 03:07:49;;;;;;;13.52;3.45;;;15.70;99.90;;;;;;5020971;28;20123;-48
2023/07/13 03:10:16;;;;;;;12.65;3.55;;;15.70;99.90;;;;;;5021135;28;20045;-47
2023/07/13 03:12:42;;;;;;;11.30;3.10;;;15.70;99.90;;;;;;5020212;28;20042;-49
2023/07/13 03:15:08;;;;;;;11.60;3.63;;;15.70;99.90;;;;;;5020861;28;20093;-48
2023/07/13 03:17:34;;;;;;;13.48;3.20;;;15.70;99.90;;;;;;5021042;28;20103;-48
2023/07/13 03:19:59;;;;;;;11.45;3.47;;;15.60;99.90;;;;;;5002330;28;20057;-47
2023/07/13 03:22:25;;;;;;;11.38;3.38;;;15.70;99.90;;;;;;5020150;28;20177;-47
2023/07/13 03:24:50;;;;;;;12.55;4.10;;;15.70;99.90;;;;;;5020606;28;20470;-47
2023/07/13 03:27:17;;;;;;;14.13;3.60;;;15.70;99.90;;;;;;5020443;28;20385;-48
2023/07/13 03:29:43;;;;;;;14.90;3.80;;;15.70;99.90;;;;;;5019744;28;20120;-50
2023/07/13 03:32:09;;;;;;;10.55;3.35;;;15.70;99.90;;;;;;5020349;28;20119;-49
2023/07/13 03:34:35;;;;;;;17.65;3.90;;;15.60;99.90;;;;;;5019641;28;20495;-48
2023/07/13 03:37:01;;;;;;;11.88;3.63;;;15.60;99.90;;;;;;5020483;28;20462;-49
2023/07/13 03:39:26;;;;;;;13.07;3.65;;;15.50;99.90;;;;;;5019739;28;20049;-49
2023/07/13 03:41:52;;;;;;;11.40;3.70;;;15.50;99.90;;;;;;5020740;28;20082;-47
2023/07/13 03:44:18;;;;;;;11.50;3.47;;;15.60;99.90;;;;;;5002908;28;20088;-48
2023/07/13 03:46:44;;;;;;;13.82;3.80;;;15.50;99.90;;;;;;5020597;28;20081;-49
2023/07/13 03:49:10;;;;;;;12.88;4.07;;;15.50;99.90;;;;;;5019894;28;20041;-48
2023/07/13 03:51:35;;;;;;;15.95;3.90;;;15.60;99.90;;;;;;5020528;28;20045;-48
2023/07/13 03:54:02;;;;;;;15.57;4.15;;;15.50;99.90;;;;;;5020377;28;20068;-48
2023/07/13 03:56:30;;;;;;;11.70;4.03;;;15.50;99.90;;;;;;5019554;28;20041;-48
2023/07/13 03:58:56;;;;;;;14.93;4.25;;;15.50;99.90;;;;;;5020038;28;20341;-48
2023/07/13 04:01:24;;;;;;;13.40;4.43;;;15.50;99.90;;;;;;5020521;28;20757;-47
2023/07/13 04:03:51;;;;;;;10.73;3.88;;;15.50;99.90;;;;;;5019939;28;20079;-50
2023/07/13 04:06:20;;;;;;;18.00;4.22;;;15.60;99.90;;;;;;5019326;28;20095;-47
2023/07/13 04:08:49;;;;;;;12.95;4.10;;;15.60;99.90;;;;;;5020394;28;20088;-47
2023/07/13 04:11:15;;;;;;;14.43;3.83;;;15.60;99.90;;;;;;5020327;28;20048;-49
2023/07/13 04:13:40;;;;;;;13.65;4.40;;;15.50;99.90;;;;;;5021850;28;20056;-52
2023/07/13 04:16:06;;;;;;;19.42;4.40;;;15.50;99.90;;;;;;5024213;28;20521;-48
2023/07/13 04:18:32;;;;;;;13.13;3.65;;;15.50;99.90;;;;;;5006492;28;20056;-48
2023/07/13 04:20:58;;;;;;;10.25;3.90;;;15.50;99.90;;;;;;5022655;28;20095;-48
2023/07/13 04:23:24;;;;;;;13.38;3.85;;;15.50;99.90;;;;;;5024128;28;20051;-48
2023/07/13 04:25:52;;;;;;;19.27;3.88;;;15.50;99.90;;;;;;5024138;28;20037;-48
2023/07/13 04:28:20;;;;;;;13.30;3.83;;;15.50;99.90;;;;;;5023376;28;20049;-50
2023/07/13 04:30:45;;;;;;;18.35;4.30;;;15.60;99.90;;;;;;5023351;28;20053;-47
2023/07/13 04:33:11;;;;;;;17.00;4.28;;;15.60;99.90;;;;;;5024172;28;20399;-48
2023/07/13 04:35:37;;;;;;;18.42;4.18;;;15.60;99.90;;;;;;5023031;28;20073;-48
2023/07/13 04:38:03;;;;;;;13.27;3.58;;;15.60;99.90;;;;;;5022659;28;20389;-49
2023/07/13 04:40:29;;;;;;;15.85;4.63;;;15.70;99.90;;;;;;5023411;28;20046;-48
2023/07/13 04:42:56;;;;;;;19.40;4.03;;;15.70;99.90;;;;;;5023522;28;20073;-47
2023/07/13 04:45:23;;;;;;;16.13;4.10;;;15.70;99.90;;;;;;5022562;28;20107;-46
2023/07/13 04:47:49;;;;;;;14.77;4.00;;;15.70;99.90;;;;;;5023652;28;20072;-48
2023/07/13 04:50:19;;;;;;;12.35;4.03;;;15.80;99.90;;;;;;5022494;28;20505;-49
2023/07/13 04:52:46;;;;;;;12.70;4.10;;;15.90;99.90;;;;;;5023397;28;20297;-50
2023/07/13 04:55:11;;;;;;;12.95;3.83;;;15.90;99.90;;;;;;5022900;28;20707;-47
2023/07/13 04:57:37;;;;;;;13.60;4.10;;;16.00;99.90;;;;;;5023236;28;20037;-47
2023/07/13 05:00:06;;;;;;;14.30;3.70;;;15.90;99.90;;;;;;5023133;28;20332;-48
2023/07/13 05:02:33;;;;;;;15.27;4.47;;;15.90;99.90;;;;;;5022206;28;20585;-47
2023/07/13 05:04:59;;;;;;;13.77;4.03;;;16.20;99.90;;;;;;5021902;28;20068;-48
2023/07/13 05:07:25;;;;;;;13.65;3.88;;;16.40;99.90;;;;;;5023192;28;20458;-48
2023/07/13 05:09:52;;;;;;;13.30;3.85;;;16.60;99.90;;;;;;5023099;28;20050;-50
2023/07/13 05:12:18;;;;;;;12.52;3.85;;;16.70;99.90;;;;;;5022913;28;20487;-47
2023/07/13 05:14:44;;;;;;;10.68;3.50;;;16.70;99.90;;;;;;5023231;28;20041;-47
2023/07/13 05:17:10;;;;;;;15.45;3.95;;;16.70;99.90;;;;;;5023346;28;20068;-48
2023/07/13 05:19:35;;;;;;;13.13;4.18;;;16.80;99.90;;;;;;5021399;28;20480;-50
2023/07/13 05:22:02;;;;;;;13.50;4.07;;;16.90;99.90;;;;;;5022854;28;20221;-48
2023/07/13 05:24:28;;;;;;;12.65;4.00;;;17.00;99.90;;;;;;5021555;28;20053;-50
2023/07/13 05:26:53;;;;;;;12.45;3.90;;;17.00;99.90;;;;;;5022387;28;20122;-48
2023/07/13 05:29:20;;;;;;;12.23;3.80;;;17.10;99.90;;;;;;5022553;28;20046;-47
2023/07/13 05:31:46;;;;;;;12.57;3.80;;;17.20;99.90;;;;;;5022690;28;20068;-50
2023/07/13 05:34:11;;;;;;;10.65;4.18;;;17.30;99.90;;;;;;5022249;28;20041;-49
2023/07/13 05:36:37;;;;;;;14.40;4.00;;;17.50;99.90;;;;;;5021571;28;20621;-49
2023/07/13 05:39:04;;;;;;;11.55;3.97;;;17.60;99.90;;;;;;5022481;28;20521;-49
2023/07/13 05:41:29;;;;;;;11.90;3.58;;;17.80;99.90;;;;;;5004646;28;20111;-47
2023/07/13 05:43:55;;;;;;;12.82;4.18;;;17.90;99.90;;;;;;5022542;28;20288;-48
2023/07/13 05:46:21;;;;;;;13.88;4.00;;;17.80;99.90;;;;;;5021221;28;20056;-47
2023/07/13 05:48:47;;;;;;;12.77;4.20;;;17.90;99.90;;;;;;5021871;28;20048;-48
2023/07/13 05:51:13;;;;;;;12.25;3.92;;;18.00;99.90;;;;;;5021621;28;20346;-46
2023/07/13 05:53:39;;;;;;;10.82;3.30;;;18.30;99.90;;;;;;5021580;28;20050;-48
2023/07/13 05:56:05;;;;;;;10.57;3.60;;;18.60;99.90;;;;;;5022019;28;20042;-47
2023/07/13 05:58:30;;;;;;;13.55;3.28;;;18.80;99.90;;;;;;5021894;28;20609;-47
2023/07/13 06:01:06;;;;;;;14.15;3.90;;;19.00;99.90;;;;;;5021897;28;20085;-47
2023/07/13 06:03:32;;;;;;;11.23;3.33;;;19.10;99.90;;;;;;5021683;28;20072;-47
2023/07/13 06:06:00;;;;;;;14.90;4.03;;;19.10;99.90;;;;;;5021201;28;20163;-48
2023/07/13 06:08:26;;;;;;;11.57;3.75;;;19.30;99.90;;;;;;5021982;28;20066;-48
2023/07/13 06:10:52;;;;;;;9.35;3.30;;;19.50;99.90;;;;;;5021486;28;20049;-48
2023/07/13 06:13:19;;;;;;;6.95;3.00;;;19.70;99.90;;;;;;5030962;28;20422;-51
2023/07/13 06:15:49;;;;;;;10.07;3.55;;;19.80;99.90;;;;;;5025268;28;20041;-49
2023/07/13 06:18:15;;;;;;;13.00;3.60;;;19.90;99.90;;;;;;5003401;28;20041;-50
2023/07/13 06:20:40;;;;;;;11.45;3.20;;;20.00;99.90;;;;;;5023224;28;20048;-48
2023/07/13 06:23:06;;;;;;;8.68;3.20;;;20.00;99.90;;;;;;5035071;28;20037;-47
2023/07/13 06:25:31;;;;;;;11.25;3.20;;;19.90;99.90;;;;;;5040886;28;20045;-51
2023/07/13 06:27:57;;;;;;;10.02;3.30;;;20.00;99.90;;;;;;5041194;28;20044;-47
2023/07/13 06:30:23;;;;;;;13.63;3.33;;;20.00;99.90;;;;;;5041668;28;20041;-48
2023/07/13 06:32:49;;;;;;;9.35;2.60;;;20.10;99.90;;;;;;5041783;28;20040;-51
2023/07/13 06:35:15;;;;;;;8.90;2.85;;;20.20;99.90;;;;;;5040179;28;20044;-47
2023/07/13 06:37:40;;;;;;;9.20;3.17;;;20.20;99.90;;;;;;5028494;28;20037;-47
2023/07/13 06:40:07;;;;;;;9.32;3.22;;;20.10;99.90;;;;;;5021069;28;20045;-49
2023/07/13 06:42:32;;;;;;;9.85;3.25;;;20.10;99.90;;;;;;5021328;28;20076;-48
2023/07/13 06:44:58;;;;;;;7.30;3.08;;;20.00;99.90;;;;;;5021244;28;20385;-49
2023/07/13 06:47:24;;;;;;;12.25;3.15;;;19.80;99.90;;;;;;5021330;28;20112;-48
2023/07/13 06:49:49;;;;;;;12.80;3.40;;;19.80;99.90;;;;;;5020877;28;20088;-49
2023/07/13 06:52:15;;;;;;;11.18;3.67;;;19.80;99.90;;;;;;5021460;28;20039;-48
2023/07/13 06:54:41;;;;;;;9.15;3.47;;;19.70;99.90;;;;;;5021574;28;20379;-48
2023/07/13 06:57:07;;;;;;;8.50;3.30;;;19.50;99.90;;;;;;5020864;28;20427;-48
2023/07/13 06:59:32;;;;;;;8.55;2.55;;;19.50;99.90;;;;;;5020958;28;20410;-51
2023/07/13 07:01:58;;;;;;;11.82;2.90;;;19.80;99.90;;;;;;5020237;28;20512;-49
2023/07/13 07:04:24;;;;;;;11.52;3.17;;;20.10;99.90;;;;;;5002323;28;20432;-50
2023/07/13 07:06:49;;;;;;;8.95;2.83;;;20.40;99.90;;;;;;5020833;28;20063;-48
2023/07/13 07:09:16;;;;;;;8.50;3.30;;;20.60;99.90;;;;;;5020333;28;20029;-50
2023/07/13 07:11:42;;;;;;;8.80;3.08;;;20.50;99.90;;;;;;5021904;28;20049;-48
2023/07/13 07:14:08;;;;;;;12.23;2.97;;;20.60;99.90;;;;;;5013894;28;20173;-48
2023/07/13 07:16:34;;;;;;;13.43;3.33;;;20.50;99.90;;;;;;5021580;28;20311;-46
2023/07/13 07:18:59;;;;;;;10.48;3.10;;;20.40;99.90;;;;;;5020895;28;20053;-48
2023/07/13 07:21:25;;;;;;;10.60;2.95;;;20.40;99.90;;;;;;5039461;28;20391;-47
2023/07/13 07:23:52;;;;;;;8.15;2.33;;;20.60;99.90;;;;;;5029229;28;20116;-47
2023/07/13 07:26:18;;;;;;;6.82;2.67;;;20.50;99.90;;;;;;5010898;28;20492;-47
2023/07/13 07:28:44;;;;;;;10.77;2.55;;;20.40;99.90;;;;;;5020618;28;20051;-47
2023/07/13 07:31:10;;;;;;;9.20;2.80;;;20.30;99.90;;;;;;5003043;28;20123;-47
2023/07/13 07:33:35;;;;;;;9.00;2.67;;;20.30;99.90;;;;;;5019185;28;20058;-48
2023/07/13 07:36:01;;;;;;;11.35;2.83;;;20.20;99.90;;;;;;5019289;28;20492;-47
2023/07/13 07:38:27;;;;;;;8.52;2.65;;;20.10;99.90;;;;;;5020296;28;20038;-56
2023/07/13 07:40:53;;;;;;;8.30;2.15;;;19.90;99.90;;;;;;5020842;28;20094;-50
2023/07/13 07:43:19;;;;;;;7.65;2.67;;;19.70;99.90;;;;;;5020373;28;20045;-49
2023/07/13 07:45:45;;;;;;;7.55;2.45;;;20.00;99.90;;;;;;5020739;28;20432;-46
2023/07/13 07:48:12;;;;;;;8.57;2.50;;;20.40;99.90;;;;;;5021620;28;20042;-49
2023/07/13 07:50:38;;;;;;;10.30;2.60;;;20.60;99.90;;;;;;5023513;28;20045;-49
2023/07/13 07:53:07;;;;;;;9.93;2.03;;;20.40;99.90;;;;;;5023690;28;20049;-47
2023/07/13 07:55:35;;;;;;;8.30;2.30;;;20.20;99.90;;;;;;5024294;28;20038;-48
2023/07/13 07:58:01;;;;;;;9.77;3.00;;;20.10;99.90;;;;;;5024480;28;20042;-50
2023/07/13 08:00:30;;;;;;;10.65;2.40;;;20.00;99.90;;;;;;5005983;28;20045;-47
2023/07/13 08:02:56;;;;;;;9.15;2.45;;;19.80;99.90;;;;;;5024234;28;20041;-47
2023/07/13 08:05:21;;;;;;;6.65;2.22;;;19.70;99.90;;;;;;5023435;28;20049;-47
2023/07/13 08:07:47;;;;;;;7.25;2.30;;;19.50;99.90;;;;;;5037068;28;20594;-49
2023/07/13 08:10:13;;;;;;;7.57;2.58;;;19.50;99.90;;;;;;5040863;28;20045;-47
2023/07/13 08:12:39;;;;;;;10.35;2.42;;;19.50;99.90;;;;;;5032894;28;20037;-48
2023/07/13 08:15:09;;;;;;;7.90;2.33;;;19.50;99.90;;;;;;5023902;28;20228;-46
2023/07/13 08:17:35;;;;;;;9.88;2.20;;;19.70;99.90;;;;;;5023306;28;20056;-47
2023/07/13 08:20:01;;;;;;;10.85;2.60;;;20.20;99.90;;;;;;5022829;28;20045;-48
2023/07/13 08:22:27;;;;;;;5.95;1.90;;;20.30;99.90;;;;;;5023935;28;20041;-50
2023/07/13 08:24:56;;;;;;;7.63;1.63;;;20.30;99.90;;;;;;5023651;28;20037;-48
2023/07/13 08:27:23;;;;;;;6.72;1.70;;;20.10;99.90;;;;;;5027314;28;20072;-48
2023/07/13 08:29:50;;;;;;;7.93;2.33;;;20.20;99.90;;;;;;5034718;28;20049;-46
2023/07/13 08:32:15;;;;;;;7.00;1.80;;;20.10;99.90;;;;;;5023356;28;20509;-47
2023/07/13 08:34:41;;;;;;;12.63;2.38;;;20.10;99.90;;;;;;5022224;28;20258;-49
2023/07/13 08:37:07;;;;;;;5.90;2.10;;;20.20;99.90;;;;;;5023583;28;20037;-47
2023/07/13 08:39:33;;;;;;;6.38;1.40;;;20.00;99.90;;;;;;5023587;28;20073;-47
2023/07/13 08:42:06;;;;;;;4.95;1.33;;;19.80;99.90;;;;;;5023323;28;20139;-47
2023/07/13 08:45:20;;;;;;;3.63;1.27;;;19.20;99.90;;;;;;5005864;28;20053;-48
2023/07/13 08:47:59;;;;;;;2.92;1.38;;;18.30;99.90;;;;;;4942445;29;20071;-48
2023/07/13 08:50:29;;;;;;;3.95;1.45;;;18.00;99.90;;;;;;4941611;29;20421;-49
2023/07/13 08:52:56;;;;;;;3.25;1.55;;;17.80;99.90;;;;;;4995028;28;20053;-48
2023/07/13 08:55:28;;;;;;;6.05;1.80;;;17.60;99.90;;;;;;5010902;28;20051;-47
2023/07/13 08:58:03;;;;;;;4.40;1.90;;;17.60;99.90;;;;;;5042955;28;20048;-48
2023/07/13 09:00:43;;;;;;;5.40;2.67;;;17.50;99.90;;;;;;5042915;28;20045;-49
2023/07/13 09:03:20;;;;;;;4.50;2.13;;;17.50;99.90;;;;;;5043224;28;20454;-48
2023/07/13 09:05:52;;;;;;;6.85;2.45;;;17.60;99.90;;;;;;5024328;28;20049;-48
2023/07/13 09:08:26;;;;;;;8.18;3.10;;;17.70;99.90;;;;;;5042968;28;20193;-48
2023/07/13 09:11:20;;;;;;;5.38;2.70;;;17.60;99.90;;;;;;5042096;28;20052;-50
2023/07/13 09:13:52;;;;;;;7.22;3.13;;;17.70;99.90;;;;;;5042866;28;20051;-50
2023/07/13 09:16:18;;;;;;;9.02;2.63;;;17.70;99.90;;;;;;5042497;28;20077;-48
2023/07/13 09:18:50;;;;;;;5.25;2.80;;;17.80;99.90;;;;;;5042229;28;20063;-49
2023/07/13 09:21:18;;;;;;;8.32;3.13;;;17.70;99.90;;;;;;5024850;28;20040;-47
2023/07/13 09:23:43;;;;;;;8.73;2.97;;;17.70;99.90;;;;;;5042355;28;20052;-47
2023/07/13 09:26:24;;;;;;;10.18;3.53;;;17.70;99.90;;;;;;5042794;28;20400;-47
2023/07/13 09:29:10;;;;;;;6.53;2.25;;;17.70;99.90;;;;;;5041386;28;20059;-47
2023/07/13 09:31:44;;;;;;;4.30;2.60;;;17.50;99.90;;;;;;5042452;28;20055;-49
2023/07/13 09:34:11;;;;;;;4.95;2.60;;;17.30;99.90;;;;;;5029273;28;20248;-48
2023/07/13 09:36:38;;;;;;;3.78;2.13;;;17.00;99.90;;;;;;5034436;28;20057;-48
2023/07/13 09:39:14;;;;;;;6.78;2.45;;;17.00;99.90;;;;;;5031856;28;20501;-49
2023/07/13 09:41:48;;;;;;;4.32;2.47;;;16.80;99.90;;;;;;5032503;28;20055;-48
2023/07/13 09:44:30;;;;;;;4.85;2.10;;;16.90;99.90;;;;;;5028641;28;20049;-48
2023/07/13 09:46:56;;;;;;;5.43;2.00;;;17.20;99.90;;;;;;5025075;28;20046;-49
2023/07/13 09:49:27;;;;;;;3.20;1.83;;;17.60;99.90;;;;;;5003544;28;20053;-48
2023/07/13 09:52:02;;;;;;;6.15;2.67;;;17.80;99.90;;;;;;5026637;28;20186;-48
2023/07/13 09:54:28;;;;;;;5.30;2.30;;;17.80;99.90;;;;;;5033331;28;20048;-50
2023/07/13 09:56:56;;;;;;;5.10;2.25;;;17.80;99.90;;;;;;5023334;28;20042;-50
2023/07/13 09:59:24;;;;;;;5.15;2.30;;;17.70;99.90;;;;;;5034403;28;20068;-48
2023/07/13 10:01:50;;;;;;;4.40;2.40;;;17.70;99.90;;;;;;5024265;28;20167;-48
2023/07/13 10:04:22;;;;;;;5.18;2.58;;;17.70;99.90;;;;;;5021238;28;20461;-51
2023/07/13 10:06:47;;;;;;;5.28;2.92;;;17.90;99.90;;;;;;5023007;28;20048;-48
2023/07/13 10:09:18;;;;;;;7.20;2.65;;;18.10;99.90;;;;;;5021995;28;20037;-49
2023/07/13 10:11:45;;;;;;;6.15;3.03;;;18.40;99.90;;;;;;5038402;28;20056;-50
2023/07/13 10:14:23;;;;;;;6.57;2.95;;;18.80;99.90;;;;;;5023640;28;20121;-51
2023/07/13 10:16:55;;;;;;;4.60;2.75;;;19.10;99.90;;;;;;5020660;28;20476;-47
2023/07/13 10:19:27;;;;;;;4.55;2.60;;;19.30;99.90;;;;;;5021090;28;20049;-50
2023/07/13 10:21:59;;;;;;;4.82;2.90;;;19.40;99.90;;;;;;5039141;28;20072;-47
2023/07/13 10:24:33;;;;;;;6.30;3.38;;;19.40;99.90;;;;;;5040560;28;20086;-48
2023/07/13 10:27:20;;;;;;;9.05;3.47;;;19.50;99.90;;;;;;5042154;28;20078;-48
2023/07/13 10:29:56;;;;;;;6.50;3.47;;;19.60;99.90;;;;;;5026242;28;20048;-49
2023/07/13 10:32:24;;;;;;;7.35;3.42;;;19.60;99.90;;;;;;5021191;28;20485;-47
2023/07/13 10:34:52;;;;;;;6.35;3.05;;;19.40;99.90;;;;;;5020257;28;20128;-51
2023/07/13 10:37:30;;;;;;;4.82;2.50;;;19.30;99.90;;;;;;5027759;28;20041;-47
2023/07/13 10:39:58;;;;;;;5.80;2.85;;;19.20;99.90;;;;;;5029673;28;20092;-47
2023/07/13 10:42:42;;;;;;;5.18;2.90;;;19.00;99.90;;;;;;5040892;28;20521;-50
2023/07/13 10:45:16;;;;;;;5.55;2.75;;;18.80;99.90;;;;;;5040999;28;20048;-49
2023/07/13 10:47:43;;;;;;;6.45;2.70;;;18.70;99.90;;;;;;5040289;28;20044;-47
2023/07/13 10:50:21;;;;;;;6.63;3.30;;;18.80;99.90;;;;;;5040170;28;20043;-48
2023/07/13 10:52:50;;;;;;;7.07;2.92;;;18.90;99.90;;;;;;5040951;28;20044;-48
2023/07/13 10:55:35;;;;;;;5.85;3.20;;;19.30;99.90;;;;;;5040609;28;20102;-46
2023/07/13 10:58:11;;;;;;;4.70;2.80;;;19.50;99.90;;;;;;5041541;28;20053;-48
2023/07/13 11:00:48;;;;;;;4.63;3.00;;;19.60;99.90;;;;;;5040293;28;20322;-47
2023/07/13 11:03:16;;;;;;;8.98;2.97;;;19.50;99.90;;;;;;5027742;28;20053;-50
2023/07/13 11:05:42;;;;;;;4.50;2.63;;;19.70;99.90;;;;;;5020661;28;20357;-47
2023/07/13 11:08:31;;;;;;;7.65;3.05;;;19.90;99.90;;;;;;5020023;28;20041;-48
2023/07/13 11:10:57;;;;;;;4.80;2.55;;;20.20;99.90;;;;;;5003216;28;20373;-49
2023/07/13 11:13:37;;;;;;;5.35;2.30;;;20.40;99.90;;;;;;5019998;28;20048;-48
2023/07/13 11:16:15;;;;;;;6.13;2.58;;;20.30;99.90;;;;;;5021669;28;20060;-48
2023/07/13 11:18:49;;;;;;;5.15;2.35;;;20.10;99.90;;;;;;5019324;28;20512;-49
2023/07/13 11:21:21;;;;;;;4.17;2.43;;;19.90;99.90;;;;;;5030033;28;20048;-50
2023/07/13 11:24:01;;;;;;;5.63;2.25;;;19.90;99.90;;;;;;5037688;28;20124;-47
2023/07/13 11:26:46;;;;;;;5.05;1.98;;;20.20;99.90;;;;;;5028171;28;20120;-47
2023/07/13 11:29:15;;;;;;;3.85;2.03;;;20.60;99.90;;;;;;5031875;28;20083;-51
2023/07/13 11:31:43;;;;;;;4.38;2.40;;;20.80;99.90;;;;;;5036294;28;20510;-47
2023/07/13 11:34:15;;;;;;;5.32;2.58;;;21.00;99.90;;;;;;5034267;28;20036;-51
2023/07/13 11:36:44;;;;;;;8.43;3.15;;;21.10;99.90;;;;;;5030092;28;20075;-53
2023/07/13 11:39:42;;;;;;;815.75;749.15;;;21.10;99.90;;;;;;5003184;28;20335;-52
2023/07/13 11:42:13;;;;;;;63.10;53.15;;;21.30;99.90;;;;;;5002122;28;20049;-49
2023/07/13 11:44:43;;;;;;;3.75;1.73;;;21.50;99.90;;;;;;5020791;28;20034;-50
2023/07/13 11:47:21;;;;;;;5.65;2.15;;;21.60;99.90;;;;;;5020539;28;20055;-52
2023/07/13 11:49:52;;;;;;;3.55;1.55;;;21.80;99.90;;;;;;5020013;28;20052;-53
2023/07/13 11:52:21;;;;;;;3.85;1.60;;;21.90;99.90;;;;;;5020487;28;20459;-49
2023/07/13 11:55:00;;;;;;;4.63;2.03;;;22.20;99.90;;;;;;5019848;28;20117;-52
2023/07/13 11:57:27;;;;;;;4.13;1.60;;;22.40;99.00;;;;;;5020587;28;20055;-50
2023/07/13 11:59:55;;;;;;;3.78;1.40;;;22.50;99.10;;;;;;5020456;28;20037;-51
2023/07/13 12:02:33;;;;;;;3.63;1.35;;;22.60;97.40;;;;;;5019777;28;20052;-52
2023/07/13 12:05:02;;;;;;;4.70;1.42;;;22.70;96.60;;;;;;5000937;28;20054;-50
2023/07/13 12:07:30;;;;;;;3.75;1.40;;;22.90;96.80;;;;;;5002916;28;20064;-51
2023/07/13 12:10:23;;;;;;;4.05;1.40;;;23.00;95.30;;;;;;5020403;28;20041;-50
2023/07/13 12:12:56;;;;;;;4.75;1.35;;;22.80;95.40;;;;;;5016611;28;20386;-49
2023/07/13 12:15:24;;;;;;;4.60;1.45;;;22.60;95.80;;;;;;5020009;28;20463;-58
2023/07/13 12:17:50;;;;;;;3.30;1.55;;;22.30;95.80;;;;;;5020195;28;20041;-57
2023/07/13 12:20:28;;;;;;;4.00;1.30;;;22.20;95.40;;;;;;5018689;28;20507;-58
2023/07/13 12:22:54;;;;;;;3.78;1.30;;;22.20;95.20;;;;;;5019965;28;20041;-57
2023/07/13 12:25:21;;;;;;;4.32;1.30;;;22.10;95.00;;;;;;5019743;28;20045;-57
2023/07/13 12:27:49;;;;;;;5.60;1.60;;;22.10;94.30;;;;;;5018775;28;20045;-58
2023/07/13 12:30:30;;;;;;;4.13;1.20;;;22.10;93.90;;;;;;5023135;28;20086;-56
2023/07/13 12:33:12;;;;;;;3.78;1.27;;;22.10;93.30;;;;;;5022521;28;20100;-55
2023/07/13 12:35:49;;;;;;;5.07;1.50;;;22.20;93.90;;;;;;5034780;28;20136;-56
2023/07/13 12:38:16;;;;;;;3.75;1.30;;;22.20;94.10;;;;;;5043442;28;20040;-55
2023/07/13 12:40:42;;;;;;;5.95;1.38;;;22.20;93.70;;;;;;5030124;28;20123;-56
2023/07/13 12:43:14;;;;;;;3.83;1.40;;;22.10;93.50;;;;;;5031845;28;20037;-56
2023/07/13 12:45:56;;;;;;;3.53;1.33;;;22.10;93.80;;;;;;5040508;28;20094;-55
2023/07/13 12:48:22;;;;;;;6.00;1.60;;;22.40;93.00;;;;;;5037609;28;20457;-56
2023/07/13 12:50:52;;;;;;;4.03;1.50;;;22.50;93.10;;;;;;5041924;28;20120;-56